createdAt,value
2018-03-28T00:01:18.185Z,12.00
2018-03-28T00:03:45.794Z,10.37
2018-03-28T00:06:13.479Z,11.80
2018-03-28T00:08:41.079Z,13.00
2018-03-28T00:11:09.515Z,11.03
2018-03-28T00:13:37.162Z,12.43
2018-03-28T00:16:04.815Z,11.40
2018-03-28T00:18:32.630Z,12.00
2018-03-28T00:21:01.013Z,11.03
2018-03-28T00:23:28.726Z,12.60
2018-03-28T00:25:56.326Z,11.27
2018-03-28T00:28:23.924Z,11.73
2018-03-28T00:30:51.606Z,13.07
2018-03-28T00:33:19.284Z,10.93
2018-03-28T00:35:46.929Z,11.00
2018-03-28T00:38:14.607Z,14.03
2018-03-28T00:40:42.209Z,12.33
2018-03-28T00:43:09.838Z,10.43
2018-03-28T00:45:38.267Z,9.27
2018-03-28T00:48:06.626Z,10.60
2018-03-28T00:50:34.248Z,14.43
2018-03-28T00:53:01.844Z,9.93
2018-03-28T00:55:29.499Z,12.00
2018-03-28T00:57:57.101Z,11.43
2018-03-28T01:00:24.687Z,11.47
2018-03-28T01:02:53.146Z,8.87
2018-03-28T01:05:20.734Z,9.37
2018-03-28T01:07:48.329Z,10.13
2018-03-28T01:10:15.913Z,8.40
2018-03-28T01:12:44.287Z,10.13
2018-03-28T01:15:12.682Z,9.83
2018-03-28T01:17:40.272Z,8.40
2018-03-28T01:20:07.903Z,8.60
2018-03-28T01:22:35.502Z,8.07
2018-03-28T01:25:03.121Z,7.40
2018-03-28T01:27:31.466Z,8.73
2018-03-28T01:29:59.059Z,8.00
2018-03-28T01:32:26.650Z,7.07
2018-03-28T01:34:54.253Z,8.67
2018-03-28T01:37:21.839Z,8.23
2018-03-28T01:39:49.438Z,7.03
2018-03-28T01:42:17.040Z,8.43
2018-03-28T01:44:45.404Z,5.27
2018-03-28T01:47:12.976Z,6.40
2018-03-28T01:49:40.609Z,7.60
2018-03-28T01:52:09.040Z,7.07
2018-03-28T01:54:36.832Z,7.67
2018-03-28T01:57:05.209Z,5.97
2018-03-28T01:59:33.640Z,6.90
2018-03-28T02:02:01.239Z,7.23
2018-03-28T02:04:29.666Z,6.70
2018-03-28T02:06:57.391Z,5.90
2018-03-28T02:09:25.015Z,6.03
2018-03-28T02:11:52.611Z,6.83
2018-03-28T02:14:20.233Z,7.53
2018-03-28T02:16:47.816Z,6.00
2018-03-28T02:19:15.448Z,7.23
2018-03-28T02:21:43.026Z,5.60
2018-03-28T02:24:10.595Z,5.47
2018-03-28T02:26:39.006Z,5.67
2018-03-28T02:29:06.586Z,5.57
2018-03-28T02:31:34.189Z,6.93
2018-03-28T02:34:02.543Z,5.27
2018-03-28T02:36:30.150Z,4.37
2018-03-28T02:38:57.716Z,5.20
2018-03-28T02:41:25.318Z,5.93
2018-03-28T02:43:52.911Z,5.40
2018-03-28T02:46:21.278Z,6.67
2018-03-28T02:48:48.868Z,5.33
2018-03-28T02:51:17.298Z,5.47
2018-03-28T02:53:44.876Z,4.37
2018-03-28T02:56:12.464Z,4.50
2018-03-28T02:58:40.812Z,4.87
2018-03-28T03:01:08.490Z,4.77
2018-03-28T03:03:36.854Z,5.97
2018-03-28T03:06:04.461Z,4.70
2018-03-28T03:08:32.042Z,4.70
2018-03-28T03:10:59.648Z,4.47
2018-03-28T03:13:27.208Z,4.40
2018-03-28T03:15:54.804Z,4.63
2018-03-28T03:18:22.387Z,7.33
2018-03-28T03:20:49.985Z,4.53
2018-03-28T03:23:17.577Z,4.17
2018-03-28T03:25:45.178Z,3.70
2018-03-28T03:28:12.758Z,6.30
2018-03-28T03:30:40.346Z,5.13
2018-03-28T03:33:07.928Z,4.43
2018-03-28T03:35:35.490Z,4.03
2018-03-28T03:38:04.024Z,4.70
2018-03-28T03:40:31.606Z,6.03
2018-03-28T03:42:59.207Z,4.73
2018-03-28T03:45:27.545Z,3.70
2018-03-28T03:47:55.137Z,5.17
2018-03-28T03:50:23.488Z,4.30
2018-03-28T03:52:51.070Z,4.13
2018-03-28T03:55:19.448Z,4.60
2018-03-28T03:57:47.045Z,4.00
2018-03-28T04:00:14.630Z,4.13
2018-03-28T04:02:42.239Z,8.13
2018-03-28T04:05:10.595Z,3.97
2018-03-28T04:07:38.228Z,4.70
2018-03-28T04:10:05.833Z,3.80
2018-03-28T04:12:33.419Z,6.53
2018-03-28T04:15:00.998Z,3.70
2018-03-28T04:17:28.609Z,5.10
2018-03-28T04:19:56.190Z,4.60
2018-03-28T04:22:24.562Z,3.53
2018-03-28T04:24:52.982Z,3.83
2018-03-28T04:27:20.582Z,4.40
2018-03-28T04:29:48.194Z,4.80
2018-03-28T04:32:15.847Z,3.87
2018-03-28T04:34:43.502Z,4.03
2018-03-28T04:37:11.101Z,4.20
2018-03-28T04:39:38.689Z,3.70
2018-03-28T04:42:06.310Z,4.23
2018-03-28T04:44:33.981Z,4.00
2018-03-28T04:47:01.548Z,3.80
2018-03-28T04:49:29.140Z,4.40
2018-03-28T04:51:57.496Z,5.00
2018-03-28T04:54:25.145Z,4.30
2018-03-28T04:56:52.826Z,4.80
2018-03-28T04:59:20.436Z,3.80
2018-03-28T05:01:48.022Z,5.23
2018-03-28T05:04:15.650Z,3.33
2018-03-28T05:06:43.313Z,4.17
2018-03-28T05:09:10.943Z,4.53
2018-03-28T05:11:38.541Z,4.40
2018-03-28T05:14:06.139Z,3.80
2018-03-28T05:16:33.737Z,3.60
2018-03-28T05:19:02.144Z,6.10
2018-03-28T05:21:29.725Z,3.40
2018-03-28T05:23:57.334Z,3.60
2018-03-28T05:26:25.760Z,3.47
2018-03-28T05:28:53.424Z,4.73
2018-03-28T05:31:21.002Z,4.43
2018-03-28T05:33:48.625Z,6.00
2018-03-28T05:36:16.224Z,6.20
2018-03-28T05:38:43.812Z,4.93
2018-03-28T05:41:12.144Z,4.30
2018-03-28T05:43:39.768Z,5.10
2018-03-28T05:46:08.389Z,4.57
2018-03-28T05:48:35.996Z,4.70
2018-03-28T05:51:04.388Z,5.47
2018-03-28T05:53:32.774Z,4.10
2018-03-28T05:56:00.548Z,5.10
2018-03-28T05:58:28.586Z,3.43
2018-03-28T06:00:57.009Z,6.13
2018-03-28T06:03:24.592Z,4.87
2018-03-28T06:05:52.164Z,4.40
2018-03-28T06:08:19.729Z,4.00
2018-03-28T06:10:47.321Z,3.40
2018-03-28T06:13:15.740Z,4.30
2018-03-28T06:15:43.348Z,4.43
2018-03-28T06:18:15.839Z,4.47
2018-03-28T06:20:53.274Z,4.30
2018-03-28T06:23:21.968Z,3.83
2018-03-28T06:25:50.558Z,5.37
2018-03-28T06:28:18.130Z,7.33
2018-03-28T06:30:45.760Z,7.40
2018-03-28T06:33:13.557Z,5.33
2018-03-28T06:35:41.150Z,5.43
2018-03-28T06:38:08.778Z,4.87
2018-03-28T06:40:36.365Z,5.93
2018-03-28T06:43:03.974Z,5.00
2018-03-28T06:45:32.359Z,5.83
2018-03-28T06:48:00.014Z,5.43
2018-03-28T06:50:28.384Z,5.20
2018-03-28T06:52:56.716Z,7.27
2018-03-28T06:55:24.362Z,4.33
2018-03-28T06:57:51.983Z,4.73
2018-03-28T07:00:20.348Z,5.50
2018-03-28T07:02:48.693Z,5.57
2018-03-28T07:05:16.316Z,5.90
2018-03-28T07:07:43.879Z,9.10
2018-03-28T07:10:11.472Z,4.00
2018-03-28T07:12:39.064Z,5.10
2018-03-28T07:15:06.656Z,5.53
2018-03-28T07:17:34.254Z,5.20
2018-03-28T07:20:01.820Z,4.70
2018-03-28T07:22:29.458Z,4.70
2018-03-28T07:24:57.062Z,4.60
2018-03-28T07:27:24.666Z,4.70
2018-03-28T07:29:52.230Z,3.60
2018-03-28T07:32:19.822Z,3.80
2018-03-28T07:34:47.383Z,5.53
2018-03-28T07:37:14.994Z,6.13
2018-03-28T07:39:43.388Z,5.03
2018-03-28T07:42:10.990Z,5.87
2018-03-28T07:44:38.591Z,8.30
2018-03-28T07:47:07.007Z,5.20
2018-03-28T07:49:34.568Z,7.27
2018-03-28T07:52:02.217Z,4.67
2018-03-28T07:54:29.802Z,6.37
2018-03-28T07:56:57.419Z,8.70
2018-03-28T07:59:24.999Z,4.00
2018-03-28T08:01:52.581Z,7.27
2018-03-28T08:04:20.150Z,4.80
2018-03-28T08:06:47.771Z,5.40
2018-03-28T08:09:15.349Z,12.93
2018-03-28T08:11:43.025Z,7.47
2018-03-28T08:14:10.589Z,6.53
2018-03-28T08:16:38.949Z,7.60
2018-03-28T08:19:06.531Z,5.67
2018-03-28T08:21:34.120Z,11.57
2018-03-28T08:24:02.515Z,5.10
2018-03-28T08:26:30.888Z,6.40
2018-03-28T08:28:59.271Z,5.20
2018-03-28T08:31:26.857Z,8.33
2018-03-28T08:33:54.455Z,3.63
2018-03-28T08:36:22.067Z,5.03
2018-03-28T08:38:49.657Z,10.30
2018-03-28T08:41:17.356Z,8.70
2018-03-28T08:43:45.274Z,4.83
2018-03-28T08:46:13.623Z,5.07
2018-03-28T08:48:41.224Z,8.43
2018-03-28T08:51:09.589Z,15.10
2018-03-28T08:53:37.975Z,3.30
2018-03-28T08:56:06.310Z,9.73
2018-03-28T08:58:33.903Z,4.40
2018-03-28T09:01:01.514Z,5.90
2018-03-28T09:03:29.106Z,5.23
2018-03-28T09:05:56.699Z,7.03
2018-03-28T09:08:25.079Z,6.50
2018-03-28T09:10:52.681Z,6.87
2018-03-28T09:13:20.298Z,11.37
2018-03-28T09:15:48.662Z,5.63
2018-03-28T09:18:17.044Z,4.13
2018-03-28T09:20:45.424Z,4.60
2018-03-28T09:23:13.819Z,3.83
2018-03-28T09:25:42.181Z,3.70
2018-03-28T09:28:10.560Z,4.27
2018-03-28T09:30:38.910Z,5.30
2018-03-28T09:33:06.529Z,4.67
2018-03-28T09:35:34.109Z,5.20
2018-03-28T09:38:01.676Z,4.20
2018-03-28T09:40:29.284Z,4.50
2018-03-28T09:42:56.848Z,5.60
2018-03-28T09:45:24.445Z,2.50
2018-03-28T09:47:52.071Z,5.07
2018-03-28T09:50:19.669Z,3.30
2018-03-28T09:52:47.244Z,5.53
2018-03-28T09:55:14.840Z,6.10
2018-03-28T09:57:42.439Z,4.33
2018-03-28T10:00:10.043Z,5.63
2018-03-28T10:02:43.361Z,2.20
2018-03-28T10:05:11.006Z,2.87
2018-03-28T10:07:38.577Z,6.30
2018-03-28T10:10:06.176Z,2.67
2018-03-28T10:12:33.795Z,3.47
2018-03-28T10:15:01.404Z,3.70
2018-03-28T10:17:29.013Z,3.17
2018-03-28T10:19:56.600Z,1.93
2018-03-28T10:22:24.189Z,2.73
2018-03-28T10:24:51.793Z,2.97
2018-03-28T10:27:19.356Z,2.73
2018-03-28T10:29:46.959Z,1.17
2018-03-28T10:32:14.518Z,1.57
2018-03-28T10:34:42.169Z,2.50
2018-03-28T10:37:09.753Z,3.27
2018-03-28T10:39:37.341Z,4.10
2018-03-28T10:42:05.793Z,1.50
2018-03-28T10:44:33.386Z,2.77
2018-03-28T10:47:01.734Z,2.27
2018-03-28T10:49:29.302Z,2.60
2018-03-28T10:51:57.666Z,0.93
2018-03-28T10:54:25.402Z,1.33
2018-03-28T10:56:53.032Z,1.47
2018-03-28T10:59:20.600Z,2.20
2018-03-28T11:01:48.210Z,4.40
2018-03-28T11:04:15.782Z,1.17
2018-03-28T11:06:43.368Z,3.10
2018-03-28T11:09:10.992Z,2.00
2018-03-28T11:11:38.578Z,1.17
2018-03-28T11:14:06.903Z,1.93
2018-03-28T11:16:34.489Z,1.73
2018-03-28T11:19:02.066Z,1.23
2018-03-28T11:21:30.432Z,1.43
2018-03-28T11:23:58.037Z,1.40
2018-03-28T11:26:25.650Z,2.57
2018-03-28T11:28:53.225Z,3.03
2018-03-28T11:31:20.854Z,2.20
2018-03-28T11:33:48.423Z,1.20
2018-03-28T11:36:16.021Z,1.97
2018-03-28T11:38:43.730Z,6.23
2018-03-28T11:41:11.324Z,1.50
2018-03-28T11:43:38.906Z,1.77
2018-03-28T11:46:07.286Z,2.10
2018-03-28T11:48:35.603Z,1.60
2018-03-28T11:51:03.200Z,1.97
2018-03-28T11:53:30.767Z,1.77
2018-03-28T11:55:59.159Z,1.30
2018-03-28T11:58:27.520Z,2.73
2018-03-28T12:00:55.870Z,3.20
2018-03-28T12:03:23.485Z,1.40
2018-03-28T12:05:51.804Z,3.77
2018-03-28T12:08:19.414Z,6.47
2018-03-28T12:10:47.733Z,1.83
2018-03-28T12:13:15.311Z,8.83
2018-03-28T12:15:42.874Z,2.60
2018-03-28T12:18:10.468Z,2.70
2018-03-28T12:20:38.855Z,2.37
2018-03-28T12:23:07.212Z,2.50
2018-03-28T12:25:34.947Z,3.23
2018-03-28T12:28:02.566Z,4.43
2018-03-28T12:30:30.149Z,2.20
2018-03-28T12:32:57.780Z,1.70
2018-03-28T12:35:26.129Z,3.70
2018-03-28T12:37:53.750Z,3.17
2018-03-28T12:40:21.384Z,4.43
2018-03-28T12:42:49.002Z,6.40
2018-03-28T12:45:16.584Z,2.90
2018-03-28T12:47:44.928Z,3.03
2018-03-28T12:50:12.521Z,2.33
2018-03-28T12:52:40.889Z,1.97
2018-03-28T12:55:08.462Z,2.30
2018-03-28T12:57:36.847Z,1.73
2018-03-28T13:00:05.245Z,2.13
2018-03-28T13:02:32.914Z,1.50
2018-03-28T13:05:00.526Z,2.20
2018-03-28T13:07:28.111Z,2.13
2018-03-28T13:09:56.493Z,2.40
2018-03-28T13:12:24.824Z,2.97
2018-03-28T13:14:52.414Z,2.47
2018-03-28T13:17:20.745Z,2.23
2018-03-28T13:19:48.335Z,4.57
2018-03-28T13:22:15.932Z,1.60
2018-03-28T13:24:43.528Z,1.63
2018-03-28T13:27:11.088Z,2.43
2018-03-28T13:29:38.701Z,2.73
2018-03-28T13:32:07.028Z,2.53
2018-03-28T13:34:34.621Z,1.33
2018-03-28T13:37:02.181Z,6.30
2018-03-28T13:39:29.802Z,2.37
2018-03-28T13:41:57.360Z,1.50
2018-03-28T13:44:24.946Z,1.37
2018-03-28T13:46:52.520Z,3.00
2018-03-28T13:49:20.246Z,2.63
2018-03-28T13:51:47.807Z,1.10
2018-03-28T13:54:15.435Z,1.37
2018-03-28T13:56:43.010Z,2.33
2018-03-28T13:59:10.588Z,2.40
2018-03-28T14:01:38.182Z,1.77
2018-03-28T14:04:05.777Z,3.83
2018-03-28T14:06:33.365Z,1.63
2018-03-28T14:09:00.928Z,1.23
2018-03-28T14:11:28.589Z,1.63
2018-03-28T14:13:56.144Z,1.10
2018-03-28T14:16:23.808Z,1.37
2018-03-28T14:18:51.396Z,5.10
2018-03-28T14:21:18.997Z,0.90
2018-03-28T14:23:46.576Z,2.93
2018-03-28T14:26:14.187Z,1.20
2018-03-28T14:28:42.528Z,1.60
2018-03-28T14:31:10.156Z,1.77
2018-03-28T14:33:37.742Z,2.37
2018-03-28T14:36:05.357Z,1.00
2018-03-28T14:38:32.969Z,1.60
2018-03-28T14:41:00.569Z,2.50
2018-03-28T14:43:28.186Z,2.00
2018-03-28T14:45:55.781Z,1.60
2018-03-28T14:48:23.333Z,4.43
2018-03-28T14:50:50.988Z,2.90
2018-03-28T14:53:18.563Z,2.67
2018-03-28T14:55:46.191Z,1.43
2018-03-28T14:58:13.831Z,1.63
2018-03-28T15:00:41.413Z,1.40
2018-03-28T15:03:08.972Z,1.90
2018-03-28T15:05:36.609Z,4.33
2018-03-28T15:08:04.309Z,4.90
2018-03-28T15:10:31.889Z,3.10
2018-03-28T15:12:59.528Z,1.50
2018-03-28T15:15:27.098Z,2.50
2018-03-28T15:17:54.705Z,2.27
2018-03-28T15:20:22.287Z,1.70
2018-03-28T15:22:49.895Z,2.47
2018-03-28T15:25:17.469Z,1.30
2018-03-28T15:27:45.843Z,1.73
2018-03-28T15:30:14.193Z,2.80
2018-03-28T15:32:41.801Z,1.40
2018-03-28T15:35:10.125Z,2.10
2018-03-28T15:37:37.710Z,1.60
2018-03-28T15:40:05.297Z,1.60
2018-03-28T15:42:33.678Z,5.97
2018-03-28T15:45:02.111Z,1.33
2018-03-28T15:47:29.673Z,2.70
2018-03-28T15:49:57.244Z,2.00
2018-03-28T15:52:24.826Z,2.20
2018-03-28T15:54:53.188Z,1.80
2018-03-28T15:57:20.778Z,1.60
2018-03-28T15:59:49.154Z,2.07
2018-03-28T16:02:17.512Z,1.90
2018-03-28T16:04:45.096Z,1.80
2018-03-28T16:07:13.444Z,2.63
2018-03-28T16:09:41.025Z,5.43
2018-03-28T16:12:09.424Z,2.47
2018-03-28T16:14:36.999Z,1.73
2018-03-28T16:17:04.641Z,1.60
2018-03-28T16:19:32.208Z,2.90
2018-03-28T16:21:59.809Z,1.53
2018-03-28T16:24:27.484Z,1.50
2018-03-28T16:26:55.079Z,1.70
2018-03-28T16:29:22.644Z,1.53
2018-03-28T16:31:50.207Z,1.40
2018-03-28T16:34:17.822Z,2.20
2018-03-28T16:36:45.394Z,1.30
2018-03-28T16:39:13.756Z,1.50
2018-03-28T16:41:41.319Z,1.77
2018-03-28T16:44:09.004Z,3.17
2018-03-28T16:46:36.627Z,2.20
2018-03-28T16:49:04.241Z,1.20
2018-03-28T16:51:31.813Z,1.37
2018-03-28T16:53:59.416Z,1.20
2018-03-28T16:56:26.988Z,1.87
2018-03-28T16:58:54.632Z,3.03
2018-03-28T17:01:22.192Z,1.60
2018-03-28T17:03:49.776Z,1.30
2018-03-28T17:06:18.177Z,1.30
2018-03-28T17:08:45.784Z,1.87
2018-03-28T17:11:13.381Z,1.40
2018-03-28T17:13:40.970Z,2.40
2018-03-28T17:16:08.536Z,1.40
2018-03-28T17:18:36.139Z,1.50
2018-03-28T17:21:03.741Z,2.90
2018-03-28T17:23:31.397Z,2.00
2018-03-28T17:25:58.964Z,2.30
2018-03-28T17:28:26.546Z,4.67
2018-03-28T17:30:54.122Z,6.90
2018-03-28T17:33:21.720Z,2.20
2018-03-28T17:35:50.076Z,1.50
2018-03-28T17:38:17.686Z,1.50
2018-03-28T17:40:45.285Z,1.97
2018-03-28T17:43:12.932Z,2.97
2018-03-28T17:45:40.517Z,2.30
2018-03-28T17:48:08.141Z,1.40
2018-03-28T17:50:35.755Z,1.50
2018-03-28T17:53:04.167Z,1.47
2018-03-28T17:55:31.729Z,2.20
2018-03-28T17:57:59.299Z,1.53
2018-03-28T18:00:26.938Z,1.40
2018-03-28T18:02:54.505Z,2.77
2018-03-28T18:05:22.188Z,1.67
2018-03-28T18:07:49.771Z,1.67
2018-03-28T18:10:17.362Z,1.83
2018-03-28T18:12:55.158Z,1.67
2018-03-28T18:15:23.094Z,2.60
2018-03-28T18:17:50.695Z,2.30
2018-03-28T18:20:19.355Z,2.63
2018-03-28T18:22:47.032Z,1.60
2018-03-28T18:25:14.619Z,1.53
2018-03-28T18:27:42.205Z,1.30
2018-03-28T18:30:09.835Z,1.30
2018-03-28T18:32:38.169Z,5.07
2018-03-28T18:35:05.820Z,3.23
2018-03-28T18:37:45.096Z,1.70
2018-03-28T18:40:28.946Z,2.50
2018-03-28T18:42:57.539Z,1.50
2018-03-28T18:45:25.184Z,1.93
2018-03-28T18:47:53.579Z,3.70
2018-03-28T18:50:21.399Z,3.73
2018-03-28T18:52:49.108Z,2.57
2018-03-28T18:55:16.694Z,2.30
2018-03-28T18:57:44.386Z,1.73
2018-03-28T19:00:12.029Z,1.97
2018-03-28T19:02:39.617Z,2.00
2018-03-28T19:05:07.384Z,1.67
2018-03-28T19:07:35.059Z,2.40
2018-03-28T19:10:03.416Z,3.43
2018-03-28T19:12:31.186Z,5.90
2018-03-28T19:14:59.595Z,1.77
2018-03-28T19:17:27.911Z,1.37
2018-03-28T19:19:55.499Z,2.27
2018-03-28T19:22:24.029Z,1.83
2018-03-28T19:24:51.643Z,1.90
2018-03-28T19:27:19.992Z,3.00
2018-03-28T19:29:47.564Z,3.67
2018-03-28T19:32:15.927Z,2.30
2018-03-28T19:34:43.503Z,2.20
2018-03-28T19:37:11.917Z,2.00
2018-03-28T19:39:39.503Z,2.00
2018-03-28T19:42:07.082Z,2.40
2018-03-28T19:44:34.659Z,3.63
2018-03-28T19:47:02.305Z,3.67
2018-03-28T19:49:29.888Z,5.43
2018-03-28T19:51:58.260Z,2.07
2018-03-28T19:54:26.593Z,1.77
2018-03-28T19:56:54.169Z,2.20
2018-03-28T19:59:21.767Z,1.50
2018-03-28T20:01:50.178Z,7.70
2018-03-28T20:04:17.761Z,1.80
2018-03-28T20:06:46.177Z,1.67
2018-03-28T20:09:13.749Z,1.90
2018-03-28T20:11:41.335Z,1.63
2018-03-28T20:14:08.954Z,1.80
2018-03-28T20:16:36.520Z,3.00
2018-03-28T20:19:04.142Z,2.60
2018-03-28T20:21:31.719Z,4.50
2018-03-28T20:23:59.338Z,3.43
2018-03-28T20:26:26.907Z,2.50
2018-03-28T20:28:54.499Z,2.90
2018-03-28T20:31:22.160Z,4.47
2018-03-28T20:33:49.764Z,2.70
2018-03-28T20:36:18.109Z,2.60
2018-03-28T20:38:45.700Z,2.70
2018-03-28T20:41:14.053Z,2.67
2018-03-28T20:43:41.632Z,2.90
2018-03-28T20:46:10.001Z,1.40
2018-03-28T20:48:37.598Z,1.53
2018-03-28T20:51:05.157Z,2.40
2018-03-28T20:53:32.753Z,1.50
2018-03-28T20:56:00.311Z,1.50
2018-03-28T20:58:27.916Z,1.07
2018-03-28T21:00:56.236Z,1.73
2018-03-28T21:03:23.821Z,1.73
2018-03-28T21:05:51.393Z,3.53
2018-03-28T21:08:18.986Z,3.20
2018-03-28T21:10:47.312Z,2.23
2018-03-28T21:13:14.915Z,1.60
2018-03-28T21:15:43.336Z,5.33
2018-03-28T21:18:10.909Z,1.73
2018-03-28T21:20:38.475Z,2.40
2018-03-28T21:23:06.277Z,3.53
2018-03-28T21:25:34.624Z,5.50
2018-03-28T21:28:02.221Z,5.47
2018-03-28T21:30:29.924Z,5.10
2018-03-28T21:32:57.513Z,5.40
2018-03-28T21:35:25.205Z,21.30
2018-03-28T21:37:52.757Z,11.87
2018-03-28T21:40:21.183Z,8.13
2018-03-28T21:42:48.760Z,5.37
2018-03-28T21:45:16.374Z,4.27
2018-03-28T21:47:43.963Z,4.73
2018-03-28T21:50:11.624Z,15.73
2018-03-28T21:52:39.201Z,21.53
2018-03-28T21:55:06.865Z,13.53
2018-03-28T21:57:34.494Z,6.50
2018-03-28T22:00:02.088Z,10.40
2018-03-28T22:02:29.731Z,5.07
2018-03-28T22:04:57.326Z,1.53
2018-03-28T22:07:24.919Z,1.53
2018-03-28T22:09:52.540Z,1.53
2018-03-28T22:12:20.103Z,2.20
2018-03-28T22:14:47.723Z,1.30
2018-03-28T22:17:15.279Z,1.30
2018-03-28T22:19:42.869Z,1.33
2018-03-28T22:22:10.430Z,1.20
2018-03-28T22:24:38.028Z,1.40
2018-03-28T22:27:05.617Z,2.30
2018-03-28T22:29:33.208Z,1.43
2018-03-28T22:32:00.782Z,2.03
2018-03-28T22:34:29.358Z,1.20
2018-03-28T22:36:56.940Z,1.00
2018-03-28T22:39:25.333Z,1.10
2018-03-28T22:41:52.985Z,1.53
2018-03-28T22:44:21.397Z,2.23
2018-03-28T22:46:48.984Z,2.10
2018-03-28T22:49:16.543Z,3.60
2018-03-28T22:51:44.196Z,2.60
2018-03-28T22:54:11.787Z,4.23
2018-03-28T22:56:40.132Z,2.30
2018-03-28T22:59:07.705Z,2.83
2018-03-28T23:01:35.299Z,2.13
2018-03-28T23:04:03.641Z,2.30
2018-03-28T23:06:32.401Z,1.87
2018-03-28T23:08:59.975Z,1.70
2018-03-28T23:11:27.622Z,1.90
2018-03-28T23:13:55.195Z,2.37
2018-03-28T23:16:22.793Z,4.13
2018-03-28T23:18:51.516Z,2.40
2018-03-28T23:21:20.096Z,1.63
2018-03-28T23:23:47.684Z,6.23
2018-03-28T23:26:15.275Z,3.40
2018-03-28T23:28:42.856Z,2.77
2018-03-28T23:31:11.186Z,2.43
2018-03-28T23:33:38.776Z,2.40
2018-03-28T23:36:07.126Z,4.60
2018-03-28T23:38:34.722Z,2.10
2018-03-28T23:41:03.054Z,2.17
2018-03-28T23:43:30.637Z,2.20
2018-03-28T23:45:58.196Z,2.33
2018-03-28T23:48:25.816Z,2.20
2018-03-28T23:50:53.398Z,2.13
2018-03-28T23:53:20.999Z,2.30
2018-03-28T23:55:48.565Z,2.70
2018-03-28T23:58:16.917Z,2.30
